createdAt,value
2022-10-01T00:02:09.369Z,99795.00
2022-10-01T00:04:37.983Z,99788.00
2022-10-01T00:07:09.699Z,99784.00
2022-10-01T00:09:37.681Z,99790.00
2022-10-01T00:12:05.697Z,99790.00
2022-10-01T00:14:33.581Z,99786.00
2022-10-01T00:17:01.450Z,99789.00
2022-10-01T00:19:29.202Z,99781.00
2022-10-01T00:21:56.887Z,99791.00
2022-10-01T00:24:24.835Z,99788.00
2022-10-01T00:26:53.390Z,99779.00
2022-10-01T00:29:21.047Z,99780.00
2022-10-01T00:31:49.309Z,99772.00
2022-10-01T00:34:17.309Z,99776.00
2022-10-01T00:36:44.986Z,99776.00
2022-10-01T00:39:13.102Z,99766.00
2022-10-01T00:41:41.167Z,99766.00
2022-10-01T00:44:35.347Z,99765.00
2022-10-01T00:47:14.238Z,99755.00
2022-10-01T00:49:43.733Z,99753.00
2022-10-01T00:52:16.766Z,99755.00
2022-10-01T00:54:51.599Z,99740.00
2022-10-01T00:57:23.225Z,99739.00
2022-10-01T00:59:50.923Z,99732.00
2022-10-01T01:02:18.736Z,99732.00
2022-10-01T01:04:46.632Z,99724.00
2022-10-01T01:07:14.622Z,99723.00
2022-10-01T01:09:46.139Z,99714.00
2022-10-01T01:12:33.041Z,99728.00
2022-10-01T01:15:04.926Z,99717.00
2022-10-01T01:17:59.977Z,99710.00
2022-10-01T01:20:57.964Z,99717.00
2022-10-01T01:23:53.727Z,99707.00
2022-10-01T01:26:42.548Z,99704.00
2022-10-01T01:29:26.821Z,99703.00
2022-10-01T01:31:58.539Z,99700.00
2022-10-01T01:34:26.938Z,99691.00
2022-10-01T01:37:02.859Z,99696.00
2022-10-01T01:39:33.348Z,99693.00
2022-10-01T01:42:06.701Z,99685.00
2022-10-01T01:44:37.920Z,99684.00
2022-10-01T01:47:07.514Z,99688.00
2022-10-01T01:49:36.219Z,99679.00
2022-10-01T01:52:13.601Z,99679.00
2022-10-01T01:54:42.557Z,99681.00
2022-10-01T01:57:11.709Z,99666.00
2022-10-01T01:59:40.354Z,99666.00
2022-10-01T02:02:29.205Z,99663.00
2022-10-01T02:05:00.899Z,99662.00
2022-10-01T02:07:55.801Z,99659.00
2022-10-01T02:10:56.817Z,99654.00
2022-10-01T02:13:33.353Z,99652.00
2022-10-01T02:16:31.361Z,99644.00
2022-10-01T02:18:58.948Z,99643.00
2022-10-01T02:21:48.308Z,99639.00
2022-10-01T02:24:51.782Z,99632.00
2022-10-01T02:27:44.777Z,99632.00
2022-10-01T02:30:14.690Z,99636.00
2022-10-01T02:32:45.935Z,99624.00
2022-10-01T02:35:16.837Z,99625.00
2022-10-01T02:37:46.381Z,99631.00
2022-10-01T02:40:18.286Z,99626.00
2022-10-01T02:43:12.969Z,99623.00
2022-10-01T02:45:44.968Z,99625.00
2022-10-01T02:48:13.288Z,99621.00
2022-10-01T02:51:02.064Z,99622.00
2022-10-01T02:53:37.904Z,99624.00
2022-10-01T02:56:06.288Z,99622.00
2022-10-01T02:58:34.325Z,99620.00
2022-10-01T03:01:02.076Z,99613.00
2022-10-01T03:03:32.709Z,99618.00
2022-10-01T03:06:00.469Z,99607.00
2022-10-01T03:08:28.157Z,99612.00
2022-10-01T03:10:55.763Z,99598.00
2022-10-01T03:13:23.782Z,99593.00
2022-10-01T03:15:51.662Z,99593.00
2022-10-01T03:18:19.528Z,99586.00
2022-10-01T03:20:48.995Z,99579.00
2022-10-01T03:23:16.609Z,99567.00
2022-10-01T03:25:44.368Z,99560.00
2022-10-01T03:28:12.745Z,99556.00
2022-10-01T03:30:40.457Z,99551.00
2022-10-01T03:33:08.229Z,99554.00
2022-10-01T03:35:35.893Z,99543.00
2022-10-01T03:38:03.700Z,99542.00
2022-10-01T03:40:33.531Z,99534.00
2022-10-01T03:43:01.149Z,99533.00
2022-10-01T03:45:28.901Z,99529.00
2022-10-01T03:47:56.758Z,99525.00
2022-10-01T03:50:24.616Z,99524.00
2022-10-01T03:52:52.465Z,99528.00
2022-10-01T03:55:20.315Z,99522.00
2022-10-01T03:57:48.141Z,99519.00
2022-10-01T04:00:15.915Z,99515.00
2022-10-01T04:02:43.768Z,99515.00
2022-10-01T04:05:12.543Z,99516.00
2022-10-01T04:07:41.891Z,99519.00
2022-10-01T04:10:10.301Z,99519.00
2022-10-01T04:12:38.557Z,99524.00
2022-10-01T04:15:06.783Z,99510.00
2022-10-01T04:17:34.567Z,99508.00
2022-10-01T04:20:02.378Z,99514.00
2022-10-01T04:22:30.550Z,99516.00
2022-10-01T04:24:58.387Z,99510.00
2022-10-01T04:27:26.608Z,99504.00
2022-10-01T04:29:54.384Z,99508.00
2022-10-01T04:32:22.424Z,99507.00
2022-10-01T04:34:53.087Z,99495.00
2022-10-01T04:37:22.065Z,99497.00
2022-10-01T04:39:49.941Z,99497.00
2022-10-01T04:42:18.023Z,99490.00
2022-10-01T04:44:45.858Z,99498.00
2022-10-01T04:47:13.618Z,99484.00
2022-10-01T04:49:41.384Z,99492.00
2022-10-01T04:52:09.084Z,99489.00
2022-10-01T04:54:36.865Z,99490.00
2022-10-01T04:57:04.593Z,99496.00
2022-10-01T04:59:32.882Z,99481.00
2022-10-01T05:02:00.708Z,99482.00
2022-10-01T05:04:28.498Z,99479.00
2022-10-01T05:06:56.509Z,99473.00
2022-10-01T05:09:24.455Z,99474.00
2022-10-01T05:11:52.260Z,99467.00
2022-10-01T05:14:21.322Z,99463.00
2022-10-01T05:16:48.923Z,99469.00
2022-10-01T05:19:16.615Z,99458.00
2022-10-01T05:21:44.343Z,99449.00
2022-10-01T05:24:12.169Z,99462.00
2022-10-01T05:26:40.059Z,99453.00
2022-10-01T05:29:08.253Z,99463.00
2022-10-01T05:31:36.199Z,99449.00
2022-10-01T05:34:04.101Z,99444.00
2022-10-01T05:36:31.736Z,99440.00
2022-10-01T05:39:04.881Z,99424.00
2022-10-01T05:41:32.912Z,99426.00
2022-10-01T05:44:00.996Z,99431.00
2022-10-01T05:46:28.757Z,99416.00
2022-10-01T05:48:56.511Z,99415.00
2022-10-01T05:51:24.425Z,99402.00
2022-10-01T05:53:55.202Z,99386.00
2022-10-01T05:56:23.752Z,99388.00
2022-10-01T05:58:51.660Z,99391.00
2022-10-01T06:01:19.447Z,99387.00
2022-10-01T06:03:50.655Z,99388.00
2022-10-01T06:06:25.226Z,99378.00
2022-10-01T06:08:53.071Z,99376.00
2022-10-01T06:11:24.455Z,99378.00
2022-10-01T06:13:52.747Z,99367.00
2022-10-01T06:16:21.168Z,99369.00
2022-10-01T06:18:49.785Z,99366.00
2022-10-01T06:21:17.617Z,99349.00
2022-10-01T06:23:45.945Z,99349.00
2022-10-01T06:26:13.747Z,99331.00
2022-10-01T06:28:41.460Z,99329.00
2022-10-01T06:31:09.178Z,99336.00
2022-10-01T06:33:37.121Z,99326.00
2022-10-01T06:36:05.734Z,99329.00
2022-10-01T06:38:33.616Z,99315.00
2022-10-01T06:41:04.045Z,99312.00
2022-10-01T06:43:32.796Z,99300.00
2022-10-01T06:46:05.225Z,99304.00
2022-10-01T06:48:33.266Z,99310.00
2022-10-01T06:51:00.869Z,99316.00
2022-10-01T06:53:29.414Z,99304.00
2022-10-01T06:55:57.358Z,99314.00
2022-10-01T06:58:26.666Z,99311.00
2022-10-01T07:01:02.484Z,99295.00
2022-10-01T07:03:31.390Z,99306.00
2022-10-01T07:06:04.791Z,99295.00
2022-10-01T07:08:33.521Z,99304.00
2022-10-01T07:11:02.978Z,99289.00
2022-10-01T07:13:31.267Z,99291.00
2022-10-01T07:15:59.071Z,99289.00
2022-10-01T07:18:27.275Z,99286.00
2022-10-01T07:20:57.800Z,99275.00
2022-10-01T07:23:25.691Z,99282.00
2022-10-01T07:25:53.386Z,99270.00
2022-10-01T07:28:24.159Z,99266.00
2022-10-01T07:31:02.855Z,99263.00
2022-10-01T07:33:30.750Z,99261.00
2022-10-01T07:36:01.824Z,99257.00
2022-10-01T07:38:30.115Z,99254.00
2022-10-01T07:40:59.174Z,99266.00
2022-10-01T07:43:26.979Z,99262.00
2022-10-01T07:45:58.416Z,99265.00
2022-10-01T07:48:26.430Z,99250.00
2022-10-01T07:50:54.620Z,99256.00
2022-10-01T07:53:25.100Z,99255.00
2022-10-01T07:55:53.023Z,99253.00
2022-10-01T07:58:24.339Z,99247.00
2022-10-01T08:00:58.527Z,99250.00
2022-10-01T08:03:26.431Z,99243.00
2022-10-01T08:05:54.875Z,99256.00
2022-10-01T08:08:22.888Z,99239.00
2022-10-01T08:10:51.142Z,99245.00
2022-10-01T08:13:19.246Z,99238.00
2022-10-01T08:15:50.776Z,99237.00
2022-10-01T08:18:18.479Z,99238.00
2022-10-01T08:20:46.683Z,99236.00
2022-10-01T08:23:16.201Z,99245.00
2022-10-01T08:25:45.107Z,99241.00
2022-10-01T08:28:13.425Z,99238.00
2022-10-01T08:30:42.648Z,99227.00
2022-10-01T08:33:14.438Z,99229.00
2022-10-01T08:35:43.782Z,99223.00
2022-10-01T08:38:12.351Z,99223.00
2022-10-01T08:40:50.986Z,99218.00
2022-10-01T08:43:38.589Z,99213.00
2022-10-01T08:46:16.238Z,99218.00
2022-10-01T08:48:45.876Z,99224.00
2022-10-01T08:51:37.212Z,99221.00
2022-10-01T08:54:40.156Z,99219.00
2022-10-01T08:57:17.678Z,99216.00
2022-10-01T09:00:01.597Z,99238.00
2022-10-01T09:02:41.260Z,99215.00
2022-10-01T09:05:25.562Z,99219.00
2022-10-01T09:08:02.324Z,99206.00
2022-10-01T09:10:35.984Z,99213.00
2022-10-01T09:13:25.395Z,99216.00
2022-10-01T09:16:39.937Z,99203.00
2022-10-01T09:19:19.747Z,99209.00
2022-10-01T09:21:57.597Z,99223.00
2022-10-01T09:24:45.617Z,99231.00
2022-10-01T09:27:18.770Z,99217.00
2022-10-01T09:29:54.507Z,99211.00
2022-10-01T09:32:25.388Z,99228.00
2022-10-01T09:34:53.538Z,99211.00
2022-10-01T09:37:47.931Z,99219.00
2022-10-01T09:40:35.902Z,99228.00
2022-10-01T09:43:08.368Z,99206.00
2022-10-01T09:45:37.421Z,99191.00
2022-10-01T09:48:20.656Z,99202.00
2022-10-01T09:50:58.466Z,99214.00
2022-10-01T09:54:00.244Z,99195.00
2022-10-01T09:56:51.479Z,99218.00
2022-10-01T09:59:27.516Z,99210.00
2022-10-01T10:01:59.125Z,99224.00
2022-10-01T10:04:27.125Z,99207.00
2022-10-01T10:07:04.008Z,99216.00
2022-10-01T10:09:33.588Z,99208.00
2022-10-01T10:12:02.018Z,99215.00
2022-10-01T10:14:32.619Z,99209.00
2022-10-01T10:17:11.703Z,99223.00
2022-10-01T10:19:39.942Z,99232.00
2022-10-01T10:22:32.659Z,99218.00
2022-10-01T10:25:12.698Z,99228.00
2022-10-01T10:27:55.599Z,99224.00
2022-10-01T10:30:24.912Z,99233.00
2022-10-01T10:32:54.063Z,99228.00
2022-10-01T10:35:29.149Z,99244.00
2022-10-01T10:37:57.661Z,99238.00
2022-10-01T10:40:32.820Z,99238.00
2022-10-01T10:43:00.675Z,99245.00
2022-10-01T10:45:38.214Z,99259.00
2022-10-01T10:48:07.719Z,99262.00
2022-10-01T10:50:41.228Z,99275.00
2022-10-01T10:53:22.484Z,99269.00
2022-10-01T10:55:58.406Z,99285.00
2022-10-01T10:58:28.872Z,99265.00
2022-10-01T11:00:59.821Z,99262.00
2022-10-01T11:03:29.694Z,99269.00
2022-10-01T11:06:10.141Z,99264.00
2022-10-01T11:08:39.265Z,99265.00
2022-10-01T11:11:27.946Z,99267.00
2022-10-01T11:14:23.880Z,99267.00
2022-10-01T11:17:06.002Z,99271.00
2022-10-01T11:19:40.077Z,99263.00
2022-10-01T11:22:13.663Z,99262.00
2022-10-01T11:25:12.289Z,99259.00
2022-10-01T11:27:42.992Z,99265.00
2022-10-01T11:30:22.054Z,99269.00
2022-10-01T11:33:11.317Z,99268.00
2022-10-01T11:35:59.167Z,99275.00
2022-10-01T11:38:50.537Z,99286.00
2022-10-01T11:41:38.894Z,99261.00
2022-10-01T11:44:15.617Z,99254.00
2022-10-01T11:46:46.052Z,99264.00
2022-10-01T11:49:32.939Z,99251.00
2022-10-01T11:52:10.684Z,99246.00
2022-10-01T11:55:20.642Z,99257.00
2022-10-01T11:58:27.552Z,99263.00
2022-10-01T12:01:10.372Z,99255.00
2022-10-01T12:03:54.271Z,99265.00
2022-10-01T12:06:41.490Z,99252.00
2022-10-01T12:09:15.298Z,99255.00
2022-10-01T12:11:48.217Z,99251.00
2022-10-01T12:14:28.006Z,99260.00
2022-10-01T12:17:27.252Z,99275.00
2022-10-01T12:19:56.829Z,99262.00
2022-10-01T12:22:31.325Z,99268.00
2022-10-01T12:24:59.090Z,99265.00
2022-10-01T12:27:45.645Z,99277.00
2022-10-01T12:30:31.874Z,99278.00
2022-10-01T12:33:49.209Z,99279.00
2022-10-01T12:36:29.034Z,99278.00
2022-10-01T12:39:08.570Z,99288.00
2022-10-01T12:42:09.492Z,99282.00
2022-10-01T12:45:03.608Z,99289.00
2022-10-01T12:48:15.890Z,99292.00
2022-10-01T12:50:54.991Z,99294.00
2022-10-01T12:53:44.423Z,99322.00
2022-10-01T12:56:31.042Z,99308.00
2022-10-01T12:59:24.674Z,99305.00
2022-10-01T13:02:10.736Z,99308.00
2022-10-01T13:05:06.060Z,99313.00
2022-10-01T13:07:52.865Z,99307.00
2022-10-01T13:10:47.612Z,99316.00
2022-10-01T13:13:21.725Z,99300.00
2022-10-01T13:16:14.538Z,99307.00
2022-10-01T13:19:03.061Z,99308.00
2022-10-01T13:21:56.073Z,99310.00
2022-10-01T13:24:54.998Z,99317.00
2022-10-01T13:27:31.758Z,99324.00
2022-10-01T13:30:04.469Z,99318.00
2022-10-01T13:32:53.778Z,99328.00
2022-10-01T13:35:40.466Z,99329.00
2022-10-01T13:38:29.456Z,99326.00
2022-10-01T13:41:02.316Z,99329.00
2022-10-01T13:43:30.960Z,99334.00
2022-10-01T13:46:07.423Z,99344.00
2022-10-01T13:48:36.960Z,99347.00
2022-10-01T13:51:13.175Z,99346.00
2022-10-01T13:53:44.721Z,99349.00
2022-10-01T13:56:15.501Z,99341.00
2022-10-01T13:58:47.086Z,99348.00
2022-10-01T14:01:23.589Z,99348.00
2022-10-01T14:04:17.053Z,99362.00
2022-10-01T14:06:48.207Z,99358.00
2022-10-01T14:09:37.084Z,99348.00
2022-10-01T14:12:40.900Z,99349.00
2022-10-01T14:15:39.458Z,99350.00
2022-10-01T14:18:10.495Z,99354.00
2022-10-01T14:21:04.767Z,99346.00
2022-10-01T14:23:39.474Z,99347.00
2022-10-01T14:26:11.075Z,99341.00
2022-10-01T14:29:09.792Z,99342.00
2022-10-01T14:31:55.995Z,99352.00
2022-10-01T14:34:42.616Z,99353.00
2022-10-01T14:37:17.147Z,99347.00
2022-10-01T14:39:45.525Z,99359.00
2022-10-01T14:42:17.654Z,99352.00
2022-10-01T14:44:47.058Z,99353.00
2022-10-01T14:47:21.485Z,99351.00
2022-10-01T14:49:49.969Z,99356.00
2022-10-01T14:52:24.114Z,99359.00
2022-10-01T14:55:07.468Z,99347.00
2022-10-01T14:57:44.289Z,99350.00
2022-10-01T15:00:17.919Z,99350.00
2022-10-01T15:02:47.788Z,99367.00
2022-10-01T15:05:23.550Z,99358.00
2022-10-01T15:07:52.035Z,99421.00
2022-10-01T15:10:24.198Z,99477.00
2022-10-01T15:12:53.073Z,99465.00
2022-10-01T15:15:33.844Z,99457.00
2022-10-01T15:18:04.593Z,99468.00
2022-10-01T15:20:32.847Z,99468.00
2022-10-01T15:23:01.813Z,99477.00
2022-10-01T15:25:32.537Z,99470.00
2022-10-01T15:28:13.116Z,99470.00
2022-10-01T15:30:41.316Z,99479.00
2022-10-01T15:33:21.404Z,99462.00
2022-10-01T15:35:49.221Z,99459.00
2022-10-01T15:38:17.194Z,99454.00
2022-10-01T15:40:45.592Z,99453.00
2022-10-01T15:43:31.864Z,99450.00
2022-10-01T15:46:20.552Z,99459.00
2022-10-01T15:48:48.553Z,99447.00
2022-10-01T15:51:25.958Z,99448.00
2022-10-01T15:53:56.124Z,99433.00
2022-10-01T15:56:25.078Z,99448.00
2022-10-01T15:58:58.940Z,99447.00
2022-10-01T16:01:28.987Z,99453.00
2022-10-01T16:04:08.365Z,99470.00
2022-10-01T16:06:44.849Z,99472.00
2022-10-01T16:09:21.946Z,99477.00
2022-10-01T16:11:58.181Z,99489.00
2022-10-01T16:14:35.070Z,99485.00
2022-10-01T16:17:18.034Z,99488.00
2022-10-01T16:19:57.189Z,99490.00
2022-10-01T16:22:31.896Z,99502.00
2022-10-01T16:25:02.363Z,99504.00
2022-10-01T16:27:44.352Z,99501.00
2022-10-01T16:30:29.838Z,99501.00
2022-10-01T16:33:02.717Z,99504.00
2022-10-01T16:35:35.997Z,99506.00
2022-10-01T16:38:08.581Z,99519.00
2022-10-01T16:40:44.273Z,99520.00
2022-10-01T16:43:19.084Z,99530.00
2022-10-01T16:45:47.034Z,99536.00
2022-10-01T16:48:17.406Z,99542.00
2022-10-01T16:50:48.456Z,99556.00
2022-10-01T16:53:18.493Z,99557.00
2022-10-01T16:55:47.171Z,99573.00
2022-10-01T16:58:15.873Z,99568.00
2022-10-01T17:00:43.881Z,99583.00
2022-10-01T17:03:20.235Z,99584.00
2022-10-01T17:05:48.469Z,99597.00
2022-10-01T17:08:17.243Z,99593.00
2022-10-01T17:10:58.308Z,99593.00
2022-10-01T17:13:30.361Z,99598.00
2022-10-01T17:15:58.906Z,99603.00
2022-10-01T17:18:26.825Z,99611.00
2022-10-01T17:20:54.475Z,99617.00
2022-10-01T17:23:22.805Z,99617.00
2022-10-01T17:25:51.115Z,99621.00
2022-10-01T17:28:21.041Z,99624.00
2022-10-01T17:30:50.314Z,99621.00
2022-10-01T17:33:19.564Z,99626.00
2022-10-01T17:35:54.835Z,99632.00
2022-10-01T17:38:23.125Z,99636.00
2022-10-01T17:40:56.411Z,99638.00
2022-10-01T17:43:25.080Z,99644.00
2022-10-01T17:46:00.473Z,99644.00
2022-10-01T17:48:29.283Z,99654.00
2022-10-01T17:51:06.482Z,99651.00
2022-10-01T17:53:41.886Z,99656.00
2022-10-01T17:56:15.418Z,99654.00
2022-10-01T17:58:45.707Z,99659.00
2022-10-01T18:01:16.965Z,99654.00
2022-10-01T18:03:45.118Z,99663.00
2022-10-01T18:06:14.361Z,99673.00
2022-10-01T18:08:54.747Z,99669.00
2022-10-01T18:11:24.562Z,99683.00
2022-10-01T18:13:53.294Z,99676.00
2022-10-01T18:16:21.465Z,99691.00
2022-10-01T18:21:42.275Z,99695.00
2022-10-01T18:24:10.009Z,99698.00
2022-10-01T18:26:37.882Z,99714.00
2022-10-01T18:29:06.129Z,99710.00
2022-10-01T18:31:36.798Z,99715.00
2022-10-01T18:34:21.361Z,99716.00
2022-10-01T18:37:29.505Z,99731.00
2022-10-01T18:40:09.204Z,99728.00
2022-10-01T18:42:46.820Z,99730.00
2022-10-01T18:45:17.359Z,99740.00
2022-10-01T18:47:58.325Z,99736.00
2022-10-01T18:50:54.233Z,99745.00
2022-10-01T18:53:34.828Z,99749.00
2022-10-01T18:56:32.695Z,99756.00
2022-10-01T18:59:12.589Z,99764.00
2022-10-01T19:01:57.901Z,99762.00
2022-10-01T19:04:44.148Z,99767.00
2022-10-01T19:07:43.561Z,99778.00
2022-10-01T19:10:17.227Z,99779.00
2022-10-01T19:13:04.595Z,99784.00
2022-10-01T19:16:10.873Z,99787.00
2022-10-01T19:18:58.779Z,99790.00
2022-10-01T19:21:38.816Z,99794.00
2022-10-01T19:24:06.473Z,99791.00
2022-10-01T19:27:04.131Z,99804.00
2022-10-01T19:29:48.660Z,99807.00
2022-10-01T19:32:16.352Z,99807.00
2022-10-01T19:35:07.367Z,99810.00
2022-10-01T19:37:53.740Z,99826.00
2022-10-01T19:40:31.825Z,99838.00
2022-10-01T19:43:31.371Z,99842.00
2022-10-01T19:46:13.183Z,99849.00
2022-10-01T19:48:55.057Z,99844.00
2022-10-01T19:51:32.900Z,99852.00
2022-10-01T19:54:02.373Z,99848.00
2022-10-01T19:56:32.458Z,99846.00
2022-10-01T19:59:11.266Z,99850.00
2022-10-01T20:01:44.367Z,99859.00
2022-10-01T20:04:26.770Z,99861.00
2022-10-01T20:07:00.770Z,99854.00
2022-10-01T20:09:35.591Z,99864.00
2022-10-01T20:12:28.534Z,99866.00
2022-10-01T20:15:39.609Z,99883.00
2022-10-01T20:18:32.600Z,99884.00
2022-10-01T20:21:34.108Z,99890.00
2022-10-01T20:24:13.395Z,99887.00
2022-10-01T20:26:46.186Z,99895.00
2022-10-01T20:29:38.317Z,99896.00
2022-10-01T20:32:42.076Z,99898.00
2022-10-01T20:35:19.055Z,99899.00
2022-10-01T20:38:07.135Z,99901.00
2022-10-01T20:40:55.089Z,99914.00
2022-10-01T20:43:31.599Z,99911.00
2022-10-01T20:46:03.374Z,99914.00
2022-10-01T20:48:36.352Z,99923.00
2022-10-01T20:51:33.269Z,99921.00
2022-10-01T20:54:07.781Z,99933.00
2022-10-01T20:56:42.988Z,99933.00
2022-10-01T20:59:27.776Z,99942.00
2022-10-01T21:02:37.490Z,99947.00
2022-10-01T21:05:17.688Z,99943.00
2022-10-01T21:07:53.467Z,99952.00
2022-10-01T21:10:34.070Z,99954.00
2022-10-01T21:13:42.529Z,99961.00
2022-10-01T21:16:13.500Z,99965.00
2022-10-01T21:18:47.537Z,99966.00
2022-10-01T21:21:39.729Z,99969.00
2022-10-01T21:24:46.377Z,99980.00
2022-10-01T21:27:17.303Z,99984.00
2022-10-01T21:30:10.884Z,99991.00
2022-10-01T21:33:02.331Z,99991.00
2022-10-01T21:35:33.262Z,99995.00
2022-10-01T21:38:12.750Z,99998.00
2022-10-01T21:41:08.444Z,99995.00
2022-10-01T21:43:58.462Z,99999.00
2022-10-01T21:46:38.066Z,100001.00
2022-10-01T21:49:27.686Z,100004.00
2022-10-01T21:52:14.387Z,100009.00
2022-10-01T21:55:03.983Z,100009.00
2022-10-01T21:57:53.807Z,100016.00
2022-10-01T22:00:24.941Z,100025.00
2022-10-01T22:03:00.731Z,100016.00
2022-10-01T22:05:54.477Z,100010.00
2022-10-01T22:08:25.189Z,100013.00
2022-10-01T22:10:57.271Z,100019.00
2022-10-01T22:13:30.260Z,100021.00
2022-10-01T22:16:07.825Z,100016.00
2022-10-01T22:18:36.572Z,100031.00
2022-10-01T22:21:10.110Z,100027.00
2022-10-01T22:23:42.834Z,100026.00
2022-10-01T22:26:23.281Z,100037.00
2022-10-01T22:28:54.129Z,100042.00
2022-10-01T22:31:31.228Z,100040.00
2022-10-01T22:34:04.191Z,100046.00
2022-10-01T22:36:40.520Z,100055.00
2022-10-01T22:39:27.725Z,100054.00
2022-10-01T22:42:09.562Z,100049.00
2022-10-01T22:44:37.674Z,100055.00
2022-10-01T22:47:29.268Z,100060.00
2022-10-01T22:50:34.699Z,100059.00
2022-10-01T22:53:14.695Z,100055.00
2022-10-01T22:56:08.390Z,100056.00
2022-10-01T22:59:00.763Z,100062.00
2022-10-01T23:01:47.350Z,100064.00
2022-10-01T23:04:33.467Z,100062.00
2022-10-01T23:07:13.412Z,100061.00
2022-10-01T23:10:20.525Z,100068.00
2022-10-01T23:13:11.873Z,100075.00
2022-10-01T23:16:11.949Z,100065.00
2022-10-01T23:19:02.024Z,100077.00
2022-10-01T23:21:56.913Z,100083.00
2022-10-01T23:24:49.683Z,100083.00
2022-10-01T23:27:33.169Z,100085.00
2022-10-01T23:30:12.184Z,100084.00
2022-10-01T23:33:11.049Z,100086.00
2022-10-01T23:36:06.099Z,100092.00
2022-10-01T23:38:45.828Z,100095.00
2022-10-01T23:41:25.724Z,100095.00
2022-10-01T23:43:57.084Z,100095.00
2022-10-01T23:46:28.021Z,100099.00
2022-10-01T23:49:05.153Z,100106.00
2022-10-01T23:51:44.542Z,100105.00
2022-10-01T23:54:25.887Z,100103.00
2022-10-01T23:57:08.097Z,100101.00
2022-10-01T23:59:47.363Z,100115.00
